createdAt,value
2023-07-07T00:00:31.374Z,67.00
2023-07-07T00:03:19.085Z,67.22
2023-07-07T00:05:46.924Z,67.42
2023-07-07T00:08:15.063Z,67.57
2023-07-07T00:10:44.086Z,67.45
2023-07-07T00:13:12.928Z,67.66
2023-07-07T00:15:45.429Z,67.87
2023-07-07T00:18:15.501Z,67.98
2023-07-07T00:20:43.364Z,67.85
2023-07-07T00:23:13.588Z,67.82
2023-07-07T00:25:41.522Z,67.97
2023-07-07T00:28:09.146Z,68.08
2023-07-07T00:30:36.803Z,68.32
2023-07-07T00:33:04.618Z,68.31
2023-07-07T00:35:32.636Z,68.25
2023-07-07T00:38:00.268Z,68.35
2023-07-07T00:40:28.227Z,68.39
2023-07-07T00:42:56.162Z,68.26
2023-07-07T00:45:23.763Z,68.36
2023-07-07T00:47:58.035Z,68.45
2023-07-07T00:50:28.064Z,68.16
2023-07-07T00:52:55.716Z,68.44
2023-07-07T00:55:39.741Z,68.39
2023-07-07T00:58:09.874Z,68.80
2023-07-07T01:00:38.564Z,68.79
2023-07-07T01:03:12.099Z,68.90
2023-07-07T01:05:40.000Z,68.82
2023-07-07T01:08:08.820Z,68.80
2023-07-07T01:10:41.345Z,68.66
2023-07-07T01:13:09.898Z,68.73
2023-07-07T01:15:44.410Z,68.60
2023-07-07T01:18:30.422Z,68.94
2023-07-07T01:21:13.754Z,68.93
2023-07-07T01:23:59.689Z,68.99
2023-07-07T01:26:33.826Z,69.12
2023-07-07T01:29:16.138Z,69.24
2023-07-07T01:31:47.212Z,69.31
2023-07-07T01:34:15.655Z,69.50
2023-07-07T01:36:43.637Z,69.27
2023-07-07T01:39:12.646Z,69.38
2023-07-07T01:41:55.999Z,69.45
2023-07-07T01:44:43.082Z,69.33
2023-07-07T01:47:13.236Z,69.15
2023-07-07T01:50:03.612Z,69.38
2023-07-07T01:52:37.809Z,69.25
2023-07-07T01:55:12.736Z,69.46
2023-07-07T01:57:40.829Z,69.42
2023-07-07T02:00:08.980Z,69.41
2023-07-07T02:02:36.708Z,69.44
2023-07-07T02:05:04.945Z,69.31
2023-07-07T02:07:32.685Z,69.41
2023-07-07T02:10:00.386Z,69.46
2023-07-07T02:12:28.196Z,69.51
2023-07-07T02:14:55.861Z,69.65
2023-07-07T02:17:25.847Z,69.48
2023-07-07T02:19:53.926Z,69.22
2023-07-07T02:22:21.543Z,69.01
2023-07-07T02:24:49.198Z,69.30
2023-07-07T02:27:16.804Z,69.47
2023-07-07T02:29:44.435Z,69.77
2023-07-07T02:32:12.076Z,69.68
2023-07-07T02:34:41.373Z,69.83
2023-07-07T02:37:14.182Z,69.82
2023-07-07T02:39:44.066Z,69.91
2023-07-07T02:42:12.154Z,70.09
2023-07-07T02:44:39.962Z,70.20
2023-07-07T02:47:10.478Z,70.08
2023-07-07T02:49:38.214Z,69.97
2023-07-07T02:52:06.668Z,69.97
2023-07-07T02:54:34.429Z,70.12
2023-07-07T02:57:03.072Z,70.04
2023-07-07T02:59:30.929Z,70.28
2023-07-07T03:01:58.850Z,70.37
2023-07-07T03:04:28.234Z,70.42
2023-07-07T03:06:55.930Z,70.20
2023-07-07T03:09:23.699Z,70.35
2023-07-07T03:11:51.426Z,70.24
2023-07-07T03:14:19.527Z,70.24
2023-07-07T03:16:53.706Z,70.23
2023-07-07T03:19:23.891Z,70.62
2023-07-07T03:21:54.599Z,70.63
2023-07-07T03:24:22.297Z,70.68
2023-07-07T03:26:49.917Z,71.18
2023-07-07T03:29:17.719Z,71.37
2023-07-07T03:31:45.329Z,71.44
2023-07-07T03:34:13.002Z,71.27
2023-07-07T03:36:40.777Z,71.45
2023-07-07T03:39:08.795Z,71.47
2023-07-07T03:41:36.612Z,71.54
2023-07-07T03:44:04.670Z,71.45
2023-07-07T03:46:32.363Z,71.62
2023-07-07T03:49:00.347Z,71.64
2023-07-07T03:51:30.052Z,71.79
2023-07-07T03:53:57.888Z,71.78
2023-07-07T03:56:27.815Z,71.63
2023-07-07T03:58:55.633Z,71.74
2023-07-07T04:01:23.440Z,71.67
2023-07-07T04:03:51.273Z,71.66
2023-07-07T04:06:19.324Z,71.88
2023-07-07T04:08:47.074Z,72.10
2023-07-07T04:11:17.063Z,72.26
2023-07-07T04:13:48.212Z,71.99
2023-07-07T04:16:17.968Z,72.10
2023-07-07T04:18:45.938Z,72.48
2023-07-07T04:21:19.731Z,72.74
2023-07-07T04:23:48.690Z,72.92
2023-07-07T04:26:17.398Z,73.42
2023-07-07T04:28:45.114Z,73.45
2023-07-07T04:31:13.180Z,73.66
2023-07-07T04:33:41.441Z,73.46
2023-07-07T04:36:10.294Z,73.56
2023-07-07T04:38:38.007Z,73.60
2023-07-07T04:41:07.663Z,73.69
2023-07-07T04:43:35.818Z,73.57
2023-07-07T04:46:03.841Z,73.47
2023-07-07T04:48:32.256Z,73.72
2023-07-07T04:51:04.209Z,73.83
2023-07-07T04:53:35.282Z,73.69
2023-07-07T04:56:07.372Z,73.68
2023-07-07T04:58:35.273Z,73.11
2023-07-07T05:01:06.046Z,72.61
2023-07-07T05:03:34.971Z,71.54
2023-07-07T05:06:04.442Z,71.25
2023-07-07T05:08:36.790Z,70.57
2023-07-07T05:11:05.036Z,69.75
2023-07-07T05:13:33.233Z,70.08
2023-07-07T05:16:07.037Z,69.48
2023-07-07T05:18:34.746Z,68.93
2023-07-07T05:21:06.092Z,68.81
2023-07-07T05:23:35.756Z,68.32
2023-07-07T05:26:03.793Z,67.50
2023-07-07T05:28:31.635Z,66.94
2023-07-07T05:30:59.762Z,66.42
2023-07-07T05:33:28.998Z,66.45
2023-07-07T05:35:57.856Z,66.70
2023-07-07T05:38:26.130Z,66.97
2023-07-07T05:40:54.276Z,66.80
2023-07-07T05:43:22.839Z,66.71
2023-07-07T05:46:06.066Z,66.11
2023-07-07T05:48:33.781Z,66.51
2023-07-07T05:51:02.622Z,65.69
2023-07-07T05:53:30.639Z,65.53
2023-07-07T05:56:10.737Z,66.53
2023-07-07T05:58:42.428Z,66.95
2023-07-07T06:01:15.089Z,67.39
2023-07-07T06:03:44.456Z,67.06
2023-07-07T06:06:12.763Z,65.57
2023-07-07T06:08:41.361Z,64.95
2023-07-07T06:11:09.323Z,64.96
2023-07-07T06:13:37.290Z,64.91
2023-07-07T06:16:06.669Z,64.89
2023-07-07T06:18:34.452Z,63.77
2023-07-07T06:21:03.157Z,63.21
2023-07-07T06:23:31.996Z,62.44
2023-07-07T06:25:59.774Z,61.70
2023-07-07T06:28:27.988Z,61.87
2023-07-07T06:30:55.805Z,61.69
2023-07-07T06:33:23.739Z,60.99
2023-07-07T06:35:52.193Z,61.28
2023-07-07T06:38:20.003Z,61.10
2023-07-07T06:40:48.760Z,60.65
2023-07-07T06:43:20.206Z,60.23
2023-07-07T06:45:54.929Z,59.45
2023-07-07T06:48:22.764Z,59.08
2023-07-07T06:50:50.643Z,57.93
2023-07-07T06:53:18.338Z,55.34
2023-07-07T06:55:46.303Z,55.56
2023-07-07T06:58:14.407Z,56.62
2023-07-07T07:00:42.820Z,56.51
2023-07-07T07:03:10.857Z,57.01
2023-07-07T07:05:39.539Z,57.82
2023-07-07T07:08:07.254Z,58.19
2023-07-07T07:10:35.212Z,57.06
2023-07-07T07:13:02.949Z,55.05
2023-07-07T07:15:31.365Z,53.83
2023-07-07T07:17:59.402Z,53.35
2023-07-07T07:20:27.124Z,53.67
2023-07-07T07:22:54.809Z,53.27
2023-07-07T07:25:22.493Z,52.93
2023-07-07T07:27:50.293Z,53.26
2023-07-07T07:30:17.971Z,52.77
2023-07-07T07:32:45.697Z,52.38
2023-07-07T07:35:13.693Z,51.81
2023-07-07T07:37:41.472Z,51.46
2023-07-07T07:40:09.942Z,50.44
2023-07-07T07:42:37.629Z,49.46
2023-07-07T07:45:05.963Z,49.19
2023-07-07T07:47:35.129Z,48.39
2023-07-07T07:50:03.229Z,48.66
2023-07-07T07:52:30.867Z,48.09
2023-07-07T07:54:58.635Z,46.55
2023-07-07T07:57:26.245Z,46.51
2023-07-07T07:59:53.914Z,47.09
2023-07-07T08:02:21.752Z,46.55
2023-07-07T08:04:49.473Z,47.18
2023-07-07T08:07:17.378Z,47.32
2023-07-07T08:09:45.223Z,45.79
2023-07-07T08:12:12.842Z,45.16
2023-07-07T08:14:40.666Z,44.65
2023-07-07T08:17:09.887Z,44.12
2023-07-07T08:19:38.829Z,44.49
2023-07-07T08:22:12.340Z,43.31
2023-07-07T08:24:41.876Z,44.34
2023-07-07T08:29:40.271Z,41.92
2023-07-07T08:32:11.982Z,43.11
2023-07-07T08:34:53.800Z,42.43
2023-07-07T08:37:24.028Z,42.53
2023-07-07T08:39:51.765Z,42.04
2023-07-07T08:42:37.171Z,42.14
2023-07-07T08:45:16.071Z,41.69
2023-07-07T08:47:47.267Z,41.23
2023-07-07T08:50:31.229Z,41.15
2023-07-07T08:53:17.762Z,41.74
2023-07-07T08:55:48.248Z,40.95
2023-07-07T08:58:54.038Z,39.77
2023-07-07T09:01:36.823Z,39.94
2023-07-07T09:04:29.282Z,40.61
2023-07-07T09:07:09.271Z,39.24
2023-07-07T09:09:46.849Z,39.75
2023-07-07T09:12:44.218Z,38.86
2023-07-07T09:15:21.427Z,39.70
2023-07-07T09:17:55.814Z,38.91
2023-07-07T09:20:23.929Z,38.45
2023-07-07T09:23:03.904Z,38.40
2023-07-07T09:25:49.123Z,38.09
2023-07-07T09:28:18.048Z,37.64
2023-07-07T09:30:59.832Z,37.29
2023-07-07T09:33:27.753Z,37.19
2023-07-07T09:36:12.808Z,37.41
2023-07-07T09:38:56.016Z,37.98
2023-07-07T09:42:19.304Z,38.11
2023-07-07T09:45:44.552Z,37.50
2023-07-07T09:48:36.368Z,37.46
2023-07-07T09:51:19.739Z,37.27
2023-07-07T09:53:48.049Z,38.23
2023-07-07T09:56:22.355Z,39.48
2023-07-07T09:59:12.023Z,37.83
2023-07-07T10:01:46.054Z,36.05
2023-07-07T10:04:16.500Z,35.46
2023-07-07T10:06:50.941Z,34.52
2023-07-07T10:09:18.764Z,34.33
2023-07-07T10:14:17.923Z,34.17
2023-07-07T10:17:10.848Z,34.55
2023-07-07T10:19:45.867Z,34.87
2023-07-07T10:22:14.610Z,35.43
2023-07-07T10:24:45.364Z,35.47
2023-07-07T10:27:15.113Z,34.30
2023-07-07T10:29:43.971Z,34.80
2023-07-07T10:32:16.272Z,32.47
2023-07-07T10:34:48.340Z,31.02
2023-07-07T10:37:20.735Z,30.76
2023-07-07T10:39:56.648Z,31.74
2023-07-07T10:42:25.430Z,31.03
2023-07-07T10:44:58.210Z,29.94
2023-07-07T10:47:36.224Z,30.90
2023-07-07T10:50:05.955Z,31.20
2023-07-07T10:56:02.028Z,33.55
2023-07-07T10:58:38.996Z,33.54
2023-07-07T11:01:21.702Z,33.46
2023-07-07T11:04:08.088Z,33.62
2023-07-07T11:06:42.137Z,33.33
2023-07-07T11:09:27.001Z,33.71
2023-07-07T11:12:06.768Z,33.40
2023-07-07T11:14:59.810Z,33.66
2023-07-07T11:17:46.201Z,34.22
2023-07-07T11:20:41.775Z,35.27
2023-07-07T11:23:44.609Z,33.76
2023-07-07T11:26:28.116Z,34.98
2023-07-07T11:29:16.953Z,32.75
2023-07-07T11:31:51.880Z,31.36
2023-07-07T11:34:54.174Z,32.00
2023-07-07T11:37:57.145Z,32.30
2023-07-07T11:40:43.763Z,32.51
2023-07-07T11:43:43.978Z,32.64
2023-07-07T11:46:17.133Z,32.72
2023-07-07T11:48:51.443Z,31.62
2023-07-07T11:51:47.011Z,30.27
2023-07-07T11:54:22.712Z,29.45
2023-07-07T11:57:18.257Z,29.50
2023-07-07T12:00:19.571Z,29.23
2023-07-07T12:03:02.971Z,29.38
2023-07-07T12:05:33.976Z,28.47
2023-07-07T12:08:10.557Z,28.52
2023-07-07T12:10:47.908Z,28.73
2023-07-07T12:13:24.374Z,29.22
2023-07-07T12:16:00.494Z,28.98
2023-07-07T12:18:35.451Z,29.77
2023-07-07T12:21:11.482Z,29.95
2023-07-07T12:23:39.440Z,30.34
2023-07-07T12:26:25.699Z,30.61
2023-07-07T12:28:56.202Z,29.76
2023-07-07T12:31:24.677Z,31.23
2023-07-07T12:33:53.041Z,29.47
2023-07-07T12:36:21.660Z,28.50
2023-07-07T12:38:50.693Z,26.16
2023-07-07T12:41:22.427Z,26.17
2023-07-07T12:43:52.180Z,26.38
2023-07-07T12:46:23.876Z,25.60
2023-07-07T12:48:55.862Z,26.13
2023-07-07T12:51:25.283Z,26.17
2023-07-07T12:53:54.168Z,25.98
2023-07-07T12:56:24.119Z,23.56
2023-07-07T12:58:59.062Z,23.07
2023-07-07T13:01:35.355Z,22.34
2023-07-07T13:04:06.044Z,22.66
2023-07-07T13:06:38.104Z,22.40
2023-07-07T13:09:14.935Z,21.76
2023-07-07T13:11:49.029Z,21.06
2023-07-07T13:14:40.568Z,20.15
2023-07-07T13:17:13.054Z,19.08
2023-07-07T13:19:44.785Z,20.57
2023-07-07T13:22:13.365Z,21.39
2023-07-07T13:24:42.937Z,21.13
2023-07-07T13:27:20.121Z,21.62
2023-07-07T13:29:47.884Z,22.42
2023-07-07T13:32:26.449Z,22.33
2023-07-07T13:34:54.502Z,22.96
2023-07-07T13:37:22.127Z,23.33
2023-07-07T13:39:49.790Z,22.84
2023-07-07T13:42:26.279Z,22.23
2023-07-07T13:44:58.570Z,22.50
2023-07-07T13:47:27.358Z,23.11
2023-07-07T13:49:58.590Z,23.01
2023-07-07T13:52:27.989Z,22.17
2023-07-07T13:54:57.105Z,22.11
2023-07-07T13:57:35.602Z,22.25
2023-07-07T14:00:03.701Z,22.81
2023-07-07T14:02:31.508Z,24.28
2023-07-07T14:05:06.055Z,23.52
2023-07-07T14:07:37.507Z,24.28
2023-07-07T14:10:23.734Z,23.96
2023-07-07T14:12:51.464Z,24.15
2023-07-07T14:15:19.432Z,22.72
2023-07-07T14:20:20.214Z,21.88
2023-07-07T14:22:48.112Z,22.45
2023-07-07T14:25:17.535Z,23.16
2023-07-07T14:27:45.132Z,22.61
2023-07-07T14:30:24.247Z,22.95
2023-07-07T14:32:55.438Z,22.87
2023-07-07T14:35:32.184Z,22.44
2023-07-07T14:38:15.814Z,22.19
2023-07-07T14:40:45.126Z,21.60
2023-07-07T14:43:24.069Z,21.97
2023-07-07T14:45:54.541Z,22.93
2023-07-07T14:48:23.295Z,22.90
2023-07-07T14:50:51.351Z,22.89
2023-07-07T14:53:23.500Z,22.53
2023-07-07T14:55:52.756Z,21.88
2023-07-07T14:58:24.707Z,20.74
2023-07-07T15:00:53.641Z,21.28
2023-07-07T15:03:27.500Z,20.45
2023-07-07T15:06:08.294Z,20.45
2023-07-07T15:08:37.281Z,19.66
2023-07-07T15:11:07.145Z,19.46
2023-07-07T15:13:34.888Z,18.77
2023-07-07T15:16:03.743Z,19.21
2023-07-07T15:18:31.391Z,19.25
2023-07-07T15:20:59.082Z,19.54
2023-07-07T15:23:26.858Z,20.95
2023-07-07T15:25:54.475Z,21.88
2023-07-07T15:28:22.080Z,22.26
2023-07-07T15:30:49.991Z,22.92
2023-07-07T15:33:18.270Z,23.10
2023-07-07T15:35:46.012Z,23.42
2023-07-07T15:38:25.896Z,23.92
2023-07-07T15:40:53.649Z,24.81
2023-07-07T15:43:22.516Z,25.13
2023-07-07T15:45:54.619Z,25.81
2023-07-07T15:48:23.327Z,25.87
2023-07-07T15:50:51.161Z,26.59
2023-07-07T15:53:18.978Z,26.99
2023-07-07T15:55:46.609Z,26.90
2023-07-07T15:58:14.270Z,26.33
2023-07-07T16:00:43.170Z,25.95
2023-07-07T16:03:10.924Z,25.92
2023-07-07T16:05:38.788Z,25.12
2023-07-07T16:08:12.824Z,24.76
2023-07-07T16:10:40.521Z,24.29
2023-07-07T16:13:08.197Z,23.76
2023-07-07T16:15:36.074Z,24.09
2023-07-07T16:18:04.117Z,24.34
2023-07-07T16:20:31.773Z,24.39
2023-07-07T16:22:59.931Z,23.84
2023-07-07T16:25:28.204Z,23.71
2023-07-07T16:27:56.619Z,23.50
2023-07-07T16:30:33.402Z,23.42
2023-07-07T16:33:01.188Z,22.56
2023-07-07T16:35:29.142Z,22.83
2023-07-07T16:37:56.969Z,22.81
2023-07-07T16:40:31.222Z,22.75
2023-07-07T16:43:03.786Z,22.30
2023-07-07T16:45:32.202Z,21.95
2023-07-07T16:47:59.880Z,22.40
2023-07-07T16:50:28.336Z,22.28
2023-07-07T16:52:59.807Z,22.16
2023-07-07T16:55:27.728Z,21.83
2023-07-07T16:57:55.372Z,22.03
2023-07-07T17:00:24.801Z,22.77
2023-07-07T17:02:53.200Z,22.73
2023-07-07T17:05:23.189Z,22.82
2023-07-07T17:07:50.991Z,22.97
2023-07-07T17:10:38.914Z,22.24
2023-07-07T17:13:06.786Z,22.84
2023-07-07T17:15:34.551Z,23.07
2023-07-07T17:18:04.891Z,23.09
2023-07-07T17:20:34.208Z,22.87
2023-07-07T17:23:02.048Z,22.83
2023-07-07T17:25:31.006Z,23.22
2023-07-07T17:27:58.679Z,23.44
2023-07-07T17:30:32.102Z,23.55
2023-07-07T17:32:59.993Z,23.44
2023-07-07T17:35:27.820Z,24.00
2023-07-07T17:37:55.474Z,23.88
2023-07-07T17:40:37.918Z,23.80
2023-07-07T17:43:05.602Z,24.76
2023-07-07T17:45:33.526Z,24.43
2023-07-07T17:48:01.303Z,24.54
2023-07-07T17:50:45.140Z,24.43
2023-07-07T17:53:12.759Z,24.93
2023-07-07T17:55:40.885Z,25.06
2023-07-07T17:58:12.454Z,25.40
2023-07-07T18:00:41.294Z,25.41
2023-07-07T18:03:09.246Z,25.97
2023-07-07T18:05:37.028Z,26.14
2023-07-07T18:08:09.162Z,25.77
2023-07-07T18:10:36.819Z,26.21
2023-07-07T18:13:04.478Z,27.12
2023-07-07T18:15:32.140Z,27.38
2023-07-07T18:18:22.837Z,27.45
2023-07-07T18:21:23.296Z,28.04
2023-07-07T18:23:35.802Z,28.95
2023-07-07T18:26:03.556Z,29.58
2023-07-07T18:28:31.264Z,30.12
2023-07-07T18:30:59.467Z,31.30
2023-07-07T18:33:27.703Z,31.50
2023-07-07T18:35:55.469Z,31.93
2023-07-07T18:38:23.290Z,32.56
2023-07-07T18:40:51.284Z,33.50
2023-07-07T18:43:19.897Z,34.47
2023-07-07T18:45:47.618Z,35.73
2023-07-07T18:48:15.839Z,36.45
2023-07-07T18:50:43.824Z,36.95
2023-07-07T18:53:11.745Z,37.57
2023-07-07T18:55:46.286Z,38.65
2023-07-07T18:58:13.941Z,39.21
2023-07-07T19:00:42.662Z,40.02
2023-07-07T19:03:13.025Z,40.42
2023-07-07T19:05:41.028Z,40.67
2023-07-07T19:08:12.567Z,41.70
2023-07-07T19:10:41.464Z,42.11
2023-07-07T19:13:22.439Z,42.93
2023-07-07T19:15:52.833Z,43.66
2023-07-07T19:18:29.701Z,44.26
2023-07-07T19:20:57.631Z,44.72
2023-07-07T19:23:25.273Z,45.10
2023-07-07T19:25:52.936Z,45.47
2023-07-07T19:28:31.420Z,46.25
2023-07-07T19:30:59.350Z,46.43
2023-07-07T19:33:27.065Z,46.90
2023-07-07T19:35:58.134Z,47.51
2023-07-07T19:38:26.937Z,48.07
2023-07-07T19:40:59.335Z,48.49
2023-07-07T19:43:26.995Z,49.10
2023-07-07T19:45:58.363Z,49.28
2023-07-07T19:48:26.442Z,49.84
2023-07-07T19:50:56.505Z,50.43
2023-07-07T19:53:24.182Z,50.86
2023-07-07T19:55:56.536Z,51.26
2023-07-07T19:58:27.445Z,51.61
2023-07-07T20:00:55.063Z,51.83
2023-07-07T20:03:23.825Z,52.01
2023-07-07T20:05:51.583Z,52.42
2023-07-07T20:08:19.205Z,52.97
2023-07-07T20:10:46.856Z,53.40
2023-07-07T20:13:14.763Z,53.73
2023-07-07T20:15:42.668Z,53.91
2023-07-07T20:18:12.489Z,54.42
2023-07-07T20:20:40.146Z,54.93
2023-07-07T20:23:13.304Z,54.91
2023-07-07T20:25:41.272Z,55.07
2023-07-07T20:28:18.051Z,55.31
2023-07-07T20:30:45.837Z,55.60
2023-07-07T20:33:14.073Z,55.59
2023-07-07T20:35:41.803Z,55.64
2023-07-07T20:38:11.387Z,55.97
2023-07-07T20:40:40.298Z,56.28
2023-07-07T20:43:09.106Z,56.50
2023-07-07T20:45:37.481Z,56.65
2023-07-07T20:48:11.305Z,56.73
2023-07-07T20:50:39.122Z,56.80
2023-07-07T20:53:08.739Z,57.08
2023-07-07T20:55:36.412Z,57.33
2023-07-07T20:58:09.585Z,57.40
2023-07-07T21:00:37.864Z,57.64
2023-07-07T21:03:05.629Z,57.61
2023-07-07T21:05:33.715Z,57.60
2023-07-07T21:08:01.322Z,57.81
2023-07-07T21:10:33.715Z,57.93
2023-07-07T21:13:01.328Z,58.12
2023-07-07T21:15:29.005Z,58.13
2023-07-07T21:17:56.665Z,58.35
2023-07-07T21:20:35.448Z,58.31
2023-07-07T21:23:04.496Z,58.33
2023-07-07T21:25:33.036Z,58.32
2023-07-07T21:28:01.191Z,58.28
2023-07-07T21:30:29.002Z,58.55
2023-07-07T21:32:56.721Z,58.73
2023-07-07T21:35:24.700Z,58.72
2023-07-07T21:37:52.383Z,58.76
2023-07-07T21:40:21.782Z,58.96
2023-07-07T21:42:49.747Z,58.98
2023-07-07T21:45:20.118Z,59.27
2023-07-07T21:47:55.251Z,59.58
2023-07-07T21:50:24.374Z,59.85
2023-07-07T21:52:52.861Z,59.91
2023-07-07T21:55:21.198Z,60.13
2023-07-07T21:57:49.991Z,60.17
2023-07-07T22:00:26.434Z,60.42
2023-07-07T22:02:57.780Z,60.49
2023-07-07T22:05:27.512Z,60.65
2023-07-07T22:07:55.425Z,60.75
2023-07-07T22:10:42.052Z,61.01
2023-07-07T22:13:09.895Z,60.91
2023-07-07T22:15:38.892Z,61.00
2023-07-07T22:18:17.207Z,61.04
2023-07-07T22:21:05.229Z,61.10
2023-07-07T22:23:33.353Z,61.06
2023-07-07T22:26:01.291Z,61.24
2023-07-07T22:28:30.881Z,61.44
2023-07-07T22:30:59.661Z,61.59
2023-07-07T22:33:28.354Z,61.72
2023-07-07T22:35:56.331Z,62.17
2023-07-07T22:38:27.639Z,61.86
2023-07-07T22:40:56.952Z,62.14
2023-07-07T22:43:25.076Z,62.35
2023-07-07T22:46:00.105Z,62.27
2023-07-07T22:48:27.739Z,62.66
2023-07-07T22:50:55.342Z,62.67
2023-07-07T22:53:22.959Z,62.56
2023-07-07T22:55:50.587Z,62.79
2023-07-07T22:58:19.854Z,62.75
2023-07-07T23:00:47.850Z,62.85
2023-07-07T23:03:15.855Z,62.96
2023-07-07T23:05:44.366Z,63.10
2023-07-07T23:08:30.254Z,63.17
2023-07-07T23:10:58.032Z,63.21
2023-07-07T23:13:26.473Z,63.43
2023-07-07T23:15:54.109Z,63.51
2023-07-07T23:18:23.941Z,63.62
2023-07-07T23:20:51.550Z,63.61
2023-07-07T23:23:22.747Z,63.87
2023-07-07T23:25:58.839Z,63.93
2023-07-07T23:28:29.263Z,63.81
2023-07-07T23:31:05.349Z,63.96
2023-07-07T23:33:34.665Z,63.90
2023-07-07T23:36:03.935Z,64.16
2023-07-07T23:38:31.586Z,64.29
2023-07-07T23:40:59.787Z,64.18
2023-07-07T23:43:27.607Z,64.40
2023-07-07T23:45:55.207Z,64.60
2023-07-07T23:48:22.950Z,64.69
2023-07-07T23:50:53.458Z,64.82
2023-07-07T23:53:21.872Z,65.09
2023-07-07T23:55:50.142Z,65.19
2023-07-07T23:58:25.224Z,65.14
